Terminal Aerodrome Forecast
Issued by NWS

Home | Current Version | Previous Version | Text Only | Print | Product List | Glossary On
Versions: 1 2 3 4 5 6 7 8 9 10 11 12 13 14 15 16 17 18 19 20 21 22 23 24 25 26 27 28 29 30
000
FTAK31 PANC 110540
TAFACV
TAF
PACV 110540Z 1106/1206 09014G22KT P6SM -RA SCT020 OVC035
      TEMPO 1106/1108 3SM -RA BR OVC020
     FM110800 10025G35KT 3SM RA BR SCT012 OVC020
     FM111500 13015G25KT 4SM -SHRA OVC012
     FM112100 10010KT P6SM -RA SCT015 OVC025=

USA.gov is the U.S. government's official web portal to all federal, state and local government web resources and services.